NCAR-RAP Real-Time Weather Data

Output produced by METARs form (17 October 2018  17:07 UTC)
found at http://weather.rap.ucar.edu/surface/
 
RJCB 171100Z 21002KT 9999 FEW040 04/02 Q1012
RJCB 171000Z VRB02KT 9999 FEW040 07/02 Q1012
RJCB 170900Z 35005KT 9999 FEW040 07/02 Q1011
RJCB 170800Z 35007KT 9999 FEW040 09/03 Q1011
RJCB 170700Z 33009KT 9999 FEW040 11/02 Q1010
RJCB 170600Z 34012KT 9999 FEW050 13/02 Q1010
RJCB 170500Z 35013KT 9999 FEW050 14/03 Q1010
RJCB 170400Z 34010KT 9999 FEW050 13/01 Q1009
RJCB 170300Z 36007KT 330V050 9999 FEW050 13/01 Q1010
RJCB 170200Z 35011KT 9999 FEW050 12/00 Q1010
RJCB 170100Z 35011KT 9999 FEW050 12/01 Q1010
RJCB 170000Z 34011KT 9999 FEW050 10/03 Q1011
RJCB 162300Z 32003KT 290V350 9999 FEW050 BKN/// 08/03 Q1011
RJCB 162240Z VRB02KT 9999 FEW050 BKN/// 07/03 Q1011 RMK 1CU050 A2986
RJCB 161100Z VRB01KT 9999 FEW020 07/05 Q1010
RJCB 161000Z 07003KT 030V130 9999 FEW020 10/06 Q1010
RJCB 160900Z 10003KT 9999 FEW020 SCT070 10/07 Q1010
RJCB 160800Z 01006KT 9999 FEW020 12/07 Q1010
RJCB 160700Z 18006KT 9999 FEW025 14/08 Q1009
RJCB 160600Z 15006KT 110V190 9999 FEW025 15/10 Q1010
RJCB 160500Z VRB04KT 9999 FEW025 16/09 Q1010
RJCB 160400Z 04003KT 300V110 9999 FEW025 16/09 Q1010
RJCB 160300Z VRB01KT 9999 FEW020 15/10 Q1011
RJCB 160200Z VRB03KT 9999 FEW010 13/10 Q1012
RJCB 160100Z 15003KT 120V220 5000 BR FEW003 SCT006 BKN070 10/10 Q1013
RJCB 160043Z VRB02KT 3200 BR FEW002 SCT005 BKN070 10/10 Q1013 RMK 1ST002 3ST005 6AC070 A2993
RJCB 160026Z VRB01KT 2400 BR FEW002 SCT003 BKN070 10/10 Q1013 RMK 1ST002 4ST003 6AC070 A2993
RJCB 160013Z VRB01KT 1600 R35/2000N BR FEW001 SCT002 BKN003 10/10 Q1014 RMK 1ST001 4ST002 6ST003 A2994
RJCB 160000Z VRB02KT 1500 R35/1100VP2000U BR FEW001 BKN002 09/09 Q1013
RJCB 152346Z VRB01KT 0600 R35/0450V0900N FG FEW001 BKN002 09/09 Q1014 RMK 2ST001 7ST002 A2995
RJCB 152323Z VRB01KT 0300 R35/0400V0750D FG VV002 08/08 Q1014 RMK A2996
RJCB 152309Z VRB01KT 0400 R35/0400V0650N FG VV002 08/08 Q1014 RMK A2996
RJCB 152302Z VRB01KT 0300 R35/0325V0500N FG VV002 08/08 Q1014 RMK A2996
RJCB 152300Z VRB01KT 0300 R35/0325V0450N FG VV002 08/08 Q1014
RJCB 152240Z VRB01KT 0200 R35/0175V0350D FG VV002 07/07 Q1014 RMK A2996
RJCB 151100Z VRB01KT 9999 FEW010 BKN018 08/08 Q1016
RJCB 151000Z 13004KT 9999 FEW010 SCT012 BKN018 10/09 Q1016
RJCB 150900Z 15004KT 9999 FEW010 BKN012 12/10 Q1016
RJCB 150800Z 13005KT 9999 FEW010 BKN015 12/10 Q1016
RJCB 150700Z 14005KT 9999 FEW010 BKN015 12/09 Q1017
RJCB 150600Z 14005KT 9999 FEW010 BKN018 13/10 Q1017